Time;durP1;ratioP1;P1;durP2;ratioP2;P2;SDS_P1;SDS_P2;PMS_P1;PMS_P2;Temp;Humidity;BMP_temperature;BMP_pressure;BME280_temperature;BME280_humidity;BME280_pressure;Samples;Min_cycle;Max_cycle;Signal;HPM_P1;HPM_P2
2021/08/17 00:03:00;;;;;;;40.08;23.75;;;;;;;19.97;81.31;100012.14;1747836;82;21209;-81
2021/08/17 00:06:06;;;;;;;40.33;26.45;;;;;;;19.91;81.24;100007.03;1747209;82;21339;-80
2021/08/17 00:09:12;;;;;;;40.78;26.57;;;;;;;19.87;81.58;100005.83;1747894;82;21307;-80
2021/08/17 00:12:18;;;;;;;42.10;27.75;;;;;;;19.86;81.97;100005.54;1747683;82;21181;-81
2021/08/17 00:15:25;;;;;;;43.52;28.47;;;;;;;19.86;82.49;100004.99;1746118;82;21252;-81
2021/08/17 00:18:32;;;;;;;40.28;26.23;;;;;;;19.87;83.14;100002.52;1746238;82;21248;-80
2021/08/17 00:21:38;;;;;;;39.53;21.87;;;;;;;19.88;83.28;100001.41;1746345;82;21196;-80
2021/08/17 00:24:44;;;;;;;37.20;21.68;;;;;;;19.87;82.60;100005.83;1747572;82;21193;-80
2021/08/17 00:27:50;;;;;;;35.88;21.35;;;;;;;19.86;81.92;99999.44;1744179;82;21745;-81
2021/08/17 00:30:55;;;;;;;40.88;25.60;;;;;;;19.86;81.22;99997.22;1745537;82;21220;-80
2021/08/17 00:34:01;;;;;;;40.63;25.12;;;;;;;19.84;81.74;100004.92;1726361;82;21307;-80
2021/08/17 00:37:08;;;;;;;50.23;23.98;;;;;;;19.79;82.10;100007.05;1716253;83;21203;-80
2021/08/17 00:40:15;;;;;;;36.15;24.82;;;;;;;19.76;83.17;100009.45;1720195;83;21307;-80
2021/08/17 00:43:22;;;;;;;45.33;24.63;;;;;;;19.74;84.59;100005.55;1717242;82;21688;-80
2021/08/17 00:46:30;;;;;;;40.10;24.12;;;;;;;19.75;85.35;100009.16;1718135;83;21835;-80
2021/08/17 00:49:35;;;;;;;40.58;24.47;;;;;;;19.77;86.09;100004.23;1718270;83;21261;-81
2021/08/17 00:52:41;;;;;;;42.58;24.35;;;;;;;19.78;87.34;100005.91;1717233;83;21890;-80
2021/08/17 00:55:46;;;;;;;38.17;24.23;;;;;;;19.80;88.09;99999.02;1715872;83;21644;-81
2021/08/17 00:58:52;;;;;;;38.75;23.87;;;;;;;19.84;88.01;100000.21;1715845;83;21303;-81
2021/08/17 01:01:58;;;;;;;44.35;25.23;;;;;;;19.83;86.60;100007.41;1716056;83;21284;-80
2021/08/17 01:05:05;;;;;;;43.17;25.85;;;;;;;19.72;86.05;100016.06;1715905;83;21208;-80
2021/08/17 01:08:11;;;;;;;38.45;24.85;;;;;;;19.61;86.40;100012.73;1692546;83;21269;-81
2021/08/17 01:11:16;;;;;;;34.15;22.58;;;;;;;19.55;86.59;100014.52;1676134;83;21304;-80
2021/08/17 01:14:27;;;;;;;45.73;23.42;;;;;;;19.53;86.69;100011.70;1723930;82;21721;-80
2021/08/17 01:17:33;;;;;;;35.63;21.07;;;;;;;19.53;86.63;100018.09;1693851;84;21178;-81
2021/08/17 01:20:38;;;;;;;36.33;22.02;;;;;;;19.51;86.33;100018.86;1718156;83;21299;-79
2021/08/17 01:23:45;;;;;;;41.02;24.50;;;;;;;19.49;86.14;100018.27;1718413;83;21774;-81
2021/08/17 01:26:50;;;;;;;45.78;25.90;;;;;;;19.47;86.21;100023.20;1721082;82;21322;-81
2021/08/17 01:29:55;;;;;;;41.83;24.23;;;;;;;19.45;86.08;100023.16;1719675;83;21212;-81
2021/08/17 01:33:01;;;;;;;43.02;23.92;;;;;;;19.45;87.02;100022.61;1711105;84;21771;-80
2021/08/17 01:36:05;;;;;;;42.10;22.98;;;;;;;19.44;86.62;100018.16;1704538;84;21926;-81
2021/08/17 01:39:11;;;;;;;42.00;24.85;;;;;;;19.44;86.46;100020.93;1702801;84;21295;-81
2021/08/17 01:42:18;;;;;;;40.98;24.55;;;;;;;19.41;86.18;100022.25;1702969;84;21197;-80
2021/08/17 01:45:26;;;;;;;44.18;25.20;;;;;;;19.39;86.37;100022.20;1702744;84;21197;-80
2021/08/17 01:48:35;;;;;;;51.68;26.15;;;;;;;19.38;86.92;100019.10;1703170;84;21336;-80
2021/08/17 01:51:41;;;;;;;41.70;24.85;;;;;;;19.41;87.41;100015.86;1703392;84;21379;-80
2021/08/17 01:54:47;;;;;;;51.63;30.80;;;;;;;19.43;88.05;100021.99;1704985;84;21264;-80
2021/08/17 01:57:52;;;;;;;52.27;31.48;;;;;;;19.46;89.44;100030.39;1704030;84;21276;-80
2021/08/17 02:00:57;;;;;;;57.85;31.10;;;;;;;19.47;88.71;100031.52;1703004;83;21294;-80
2021/08/17 02:04:04;;;;;;;59.35;34.00;;;;;;;19.39;87.35;100030.52;1702900;84;22489;-81
2021/08/17 02:07:11;;;;;;;46.80;31.62;;;;;;;19.31;87.33;100025.33;1702681;84;21220;-81
2021/08/17 02:10:18;;;;;;;47.55;32.55;;;;;;;19.24;88.38;100032.91;1703997;84;21304;-80
2021/08/17 02:13:23;;;;;;;45.88;27.07;;;;;;;19.18;89.07;100029.16;1704031;84;21316;-80
2021/08/17 02:16:29;;;;;;;48.30;27.48;;;;;;;19.14;88.79;100028.79;1702781;84;21244;-80
2021/08/17 02:19:35;;;;;;;46.35;25.97;;;;;;;19.10;88.12;100026.22;1704018;84;21363;-80
2021/08/17 02:22:40;;;;;;;41.90;26.82;;;;;;;19.07;87.90;100026.69;1703356;84;21335;-80
2021/08/17 02:25:45;;;;;;;47.55;27.75;;;;;;;19.05;87.95;100028.00;1704000;84;21835;-80
2021/08/17 02:28:52;;;;;;;47.05;26.68;;;;;;;19.04;88.55;100031.31;1714456;82;21780;-81
2021/08/17 02:31:58;;;;;;;41.50;26.52;;;;;;;19.09;89.46;100035.59;1736052;82;21824;-80
2021/08/17 02:35:03;;;;;;;54.30;27.75;;;;;;;19.14;89.34;100034.88;1735798;82;21380;-81
2021/08/17 02:38:09;;;;;;;58.33;28.35;;;;;;;19.17;89.16;100041.34;1736208;82;21867;-80
2021/08/17 02:41:14;;;;;;;63.35;32.03;;;;;;;19.20;88.78;100040.03;1737396;82;21312;-80
2021/08/17 02:44:20;;;;;;;54.80;29.82;;;;;;;19.20;88.48;100043.65;1736038;82;21261;-80
2021/08/17 02:47:26;;;;;;;45.45;28.12;;;;;;;19.22;88.90;100043.40;1737412;82;21201;-80
2021/08/17 02:50:31;;;;;;;44.05;24.95;;;;;;;19.26;89.15;100047.39;1738079;82;21158;-80
2021/08/17 02:53:37;;;;;;;43.15;25.30;;;;;;;19.31;89.14;100049.73;1737890;82;21241;-81
2021/08/17 02:56:43;;;;;;;46.05;29.48;;;;;;;19.37;88.80;100053.47;1737774;82;21699;-79
2021/08/17 02:59:50;;;;;;;54.50;33.92;;;;;;;19.42;87.87;100048.05;1736171;82;21313;-81
2021/08/17 03:02:56;;;;;;;57.03;34.00;;;;;;;19.43;86.42;100052.50;1737452;82;21311;-81
2021/08/17 03:06:01;;;;;;;58.58;33.95;;;;;;;19.43;85.33;100053.89;1737039;82;21885;-80
2021/08/17 03:09:08;;;;;;;53.78;33.80;;;;;;;19.47;84.55;100057.03;1735692;82;21226;-80
2021/08/17 03:12:15;;;;;;;55.63;33.18;;;;;;;19.51;84.24;100059.62;1737214;82;21305;-80
2021/08/17 03:15:20;;;;;;;57.17;33.67;;;;;;;19.57;83.49;100052.59;1737149;82;21193;-81
2021/08/17 03:18:27;;;;;;;59.10;31.93;;;;;;;19.62;83.17;100056.06;1735904;82;21743;-80
2021/08/17 03:21:33;;;;;;;49.48;29.52;;;;;;;19.68;83.58;100052.31;1735618;82;21202;-80
2021/08/17 03:24:38;;;;;;;51.68;29.77;;;;;;;19.81;85.69;100059.55;1735788;82;21296;-80
2021/08/17 03:27:44;;;;;;;53.20;31.52;;;;;;;19.95;85.56;100052.65;1737367;82;21832;-80
2021/08/17 03:30:51;;;;;;;49.45;30.32;;;;;;;20.11;84.20;100061.59;1714330;82;21331;-81
2021/08/17 03:33:57;;;;;;;42.90;25.37;;;;;;;20.27;83.39;100064.68;1708689;84;21343;-81
2021/08/17 03:37:04;;;;;;;33.10;22.67;;;;;;;20.47;83.93;100064.28;1703462;83;21811;-80
2021/08/17 03:40:14;;;;;;;39.42;23.35;;;;;;;20.65;85.33;100055.75;1719162;83;21248;-81
2021/08/17 03:43:23;;;;;;;44.53;23.53;;;;;;;20.80;86.47;100063.56;1716073;82;21184;-81
2021/08/17 03:46:30;;;;;;;32.58;22.70;;;;;;;21.00;87.61;100061.69;1720412;83;21275;-80
2021/08/17 03:49:36;;;;;;;33.63;24.82;;;;;;;21.19;88.93;100056.19;1719216;83;21334;-80
2021/08/17 03:52:41;;;;;;;36.60;25.48;;;;;;;21.36;89.73;100059.85;1720242;83;21235;-80
2021/08/17 03:55:49;;;;;;;37.45;24.85;;;;;;;21.55;90.51;100049.82;1719984;83;21307;-81
2021/08/17 03:58:54;;;;;;;32.40;24.47;;;;;;;21.70;90.84;100059.81;1720117;83;21236;-81
2021/08/17 04:02:00;;;;;;;34.08;26.87;;;;;;;21.77;91.33;100063.25;1717823;83;21795;-80
2021/08/17 04:05:06;;;;;;;38.53;30.70;;;;;;;21.84;92.10;100064.47;1717287;83;21306;-80
2021/08/17 04:08:12;;;;;;;48.45;35.17;;;;;;;21.92;92.74;100073.75;1720081;83;21279;-81
2021/08/17 04:11:19;;;;;;;56.00;36.75;;;;;;;22.05;93.01;100071.16;1715886;82;21195;-81
2021/08/17 04:14:25;;;;;;;48.48;34.85;;;;;;;22.20;93.24;100065.81;1720258;83;22642;-81
2021/08/17 04:17:31;;;;;;;48.92;32.80;;;;;;;22.41;93.36;100071.11;1715919;83;21172;-80
2021/08/17 04:20:31;;;;;;;51.23;28.17;;;;;;;22.64;92.88;100070.83;1718838;83;21354;-81
2021/08/17 04:23:37;;;;;;;30.55;21.20;;;;;;;22.87;91.98;100068.84;1716483;83;21380;-81
2021/08/17 04:26:42;;;;;;;29.40;20.08;;;;;;;22.98;91.24;100062.28;1719789;83;21299;-81
2021/08/17 04:29:48;;;;;;;34.78;21.62;;;;;;;23.07;91.05;100059.30;1717096;83;21584;-81
2021/08/17 04:32:53;;;;;;;31.70;20.48;;;;;;;23.20;90.62;100055.24;1672109;86;21844;-80
2021/08/17 04:35:59;;;;;;;27.40;18.55;;;;;;;23.29;89.88;100050.86;1705376;84;21354;-81
2021/08/17 04:39:05;;;;;;;22.07;15.58;;;;;;;23.35;89.14;100048.94;1703757;84;21203;-81
2021/08/17 04:42:11;;;;;;;30.05;18.73;;;;;;;23.47;88.75;100053.77;1705479;84;21184;-82
2021/08/17 04:45:18;;;;;;;32.63;20.57;;;;;;;23.60;87.98;100053.30;1703872;84;21731;-80
2021/08/17 04:48:24;;;;;;;33.15;21.52;;;;;;;23.76;87.37;100070.19;1705596;84;21318;-80
2021/08/17 04:51:30;;;;;;;34.80;21.10;;;;;;;23.91;86.69;100070.30;1704590;84;21932;-80
2021/08/17 04:54:38;;;;;;;33.28;18.92;;;;;;;24.04;86.11;100064.21;1704621;84;21313;-81
2021/08/17 04:58:05;;;;;;;30.00;19.80;;;;;;;24.16;85.44;100063.45;1677410;85;21907;-81
2021/08/17 05:01:11;;;;;;;34.98;21.62;;;;;;;24.34;84.74;100062.70;1677220;84;21254;-80
2021/08/17 05:04:17;;;;;;;37.60;23.87;;;;;;;24.45;83.72;100058.84;1694398;84;21358;-80
2021/08/17 05:07:24;;;;;;;30.00;19.50;;;;;;;24.56;82.79;100056.39;1698542;82;21401;-81
2021/08/17 05:10:30;;;;;;;32.80;20.08;;;;;;;24.64;81.69;100061.42;1704908;82;21196;-81
2021/08/17 05:13:37;;;;;;;42.27;23.80;;;;;;;24.71;80.49;100061.18;1671648;84;21593;-80
2021/08/17 05:16:43;;;;;;;32.98;22.20;;;;;;;24.68;79.81;100061.16;1682204;82;21367;-82
2021/08/17 05:19:49;;;;;;;34.60;20.80;;;;;;;24.69;79.56;100067.02;1718118;81;21261;-82
2021/08/17 05:22:55;;;;;;;62.75;29.60;;;;;;;24.70;79.45;100070.13;1705020;82;21260;-82
2021/08/17 05:26:00;;;;;;;89.35;42.67;;;;;;;24.74;78.56;100075.98;1698128;82;21249;-81
2021/08/17 05:29:07;;;;;;;92.88;46.45;;;;;;;24.85;78.33;100066.52;1704665;82;21249;-82
2021/08/17 05:32:14;;;;;;;116.17;54.63;;;;;;;24.97;77.62;100076.05;1703878;81;21219;-82
2021/08/17 05:35:21;;;;;;;127.12;61.53;;;;;;;25.08;76.67;100067.13;1704882;83;21826;-81
2021/08/17 05:38:28;;;;;;;118.22;59.67;;;;;;;25.23;76.31;100076.40;1709677;83;21913;-80
2021/08/17 05:41:33;;;;;;;128.75;63.55;;;;;;;25.43;75.54;100074.72;1714337;83;21346;-81
2021/08/17 05:44:37;;;;;;;155.87;65.22;;;;;;;25.54;74.46;100076.38;1708547;83;21176;-80
2021/08/17 05:47:45;;;;;;;108.97;53.13;;;;;;;25.62;73.16;100070.22;1659234;83;21289;-81
2021/08/17 05:50:51;;;;;;;115.57;50.98;;;;;;;25.72;72.71;100067.97;1666003;85;21853;-81
2021/08/17 05:53:58;;;;;;;108.27;48.23;;;;;;;25.87;73.04;100067.13;1674639;84;21214;-82
2021/08/17 05:57:04;;;;;;;109.00;53.75;;;;;;;26.05;71.79;100067.92;1698997;82;21161;-81
2021/08/17 06:00:14;;;;;;;118.40;53.63;;;;;;;26.17;70.74;100072.66;1704985;82;21701;-79
2021/08/17 06:03:21;;;;;;;109.92;52.05;;;;;;;26.31;70.57;100072.89;1700648;84;21125;-80
2021/08/17 06:06:28;;;;;;;96.78;46.60;;;;;;;26.46;68.62;100077.06;1701421;84;21335;-79
2021/08/17 06:09:34;;;;;;;84.97;38.38;;;;;;;26.54;68.62;100077.57;1696202;82;21372;-80
2021/08/17 06:12:41;;;;;;;82.02;40.92;;;;;;;26.66;67.56;100081.72;1697947;82;21892;-81
2021/08/17 06:15:46;;;;;;;68.97;34.65;;;;;;;26.81;66.41;100077.16;1690679;83;21473;-80
2021/08/17 06:18:54;;;;;;;64.67;33.98;;;;;;;26.93;66.15;100080.46;1696252;84;21159;-80
2021/08/17 06:22:00;;;;;;;50.45;26.65;;;;;;;27.11;65.97;100082.62;1700272;82;21287;-80
2021/08/17 06:25:06;;;;;;;55.67;28.92;;;;;;;27.30;64.03;100084.73;1702971;82;21169;-82
2021/08/17 06:28:18;;;;;;;50.12;28.05;;;;;;;27.41;62.46;100081.53;1701444;82;21286;-79
2021/08/17 06:31:25;;;;;;;47.85;24.25;;;;;;;27.51;62.92;100077.80;1693499;82;21726;-80
2021/08/17 06:34:30;;;;;;;27.45;15.05;;;;;;;27.60;61.09;100078.84;1710576;81;21323;-79
2021/08/17 06:37:37;;;;;;;28.98;17.77;;;;;;;27.65;60.69;100072.34;1717802;82;21173;-79
2021/08/17 06:40:42;;;;;;;40.45;22.17;;;;;;;27.72;60.44;100081.30;1714800;82;21297;-81
2021/08/17 06:43:50;;;;;;;50.67;26.00;;;;;;;27.76;61.29;100072.56;1720412;82;21328;-81
2021/08/17 06:46:56;;;;;;;48.52;21.87;;;;;;;27.76;61.29;100072.56;1716363;82;21302;-81
2021/08/17 06:50:01;;;;;;;42.98;23.42;;;;;;;27.92;60.43;100083.06;1734098;81;21215;-81
2021/08/17 06:53:07;;;;;;;53.42;26.90;;;;;;;27.97;60.84;100091.44;1724265;82;21205;-81
2021/08/17 06:56:12;;;;;;;62.65;28.65;;;;;;;28.04;60.41;100084.88;1711504;82;21196;-81
2021/08/17 06:59:20;;;;;;;65.97;30.65;;;;;;;28.11;60.42;100090.17;1726143;82;21299;-81
2021/08/17 07:02:25;;;;;;;59.93;29.72;;;;;;;28.18;59.13;100090.64;1725763;81;21287;-81
2021/08/17 07:05:32;;;;;;;75.57;35.73;;;;;;;28.20;58.75;100092.03;1719462;81;21657;-81
2021/08/17 07:08:39;;;;;;;82.22;36.88;;;;;;;28.29;59.41;100095.03;1727379;81;21277;-80
2021/08/17 07:11:46;;;;;;;69.42;33.63;;;;;;;28.47;58.80;100092.03;1733027;81;21331;-80
2021/08/17 07:14:52;;;;;;;64.12;31.40;;;;;;;28.56;58.54;100094.99;1697576;82;21332;-81
2021/08/17 07:17:57;;;;;;;71.57;35.23;;;;;;;28.67;58.71;100103.02;1677162;85;21296;-80
2021/08/17 07:21:05;;;;;;;60.03;27.25;;;;;;;28.67;58.71;100103.02;1673494;85;21328;-80
2021/08/17 07:24:10;;;;;;;42.73;21.87;;;;;;;28.83;57.92;100097.17;1699290;82;21577;-81
2021/08/17 07:27:15;;;;;;;36.77;20.85;;;;;;;28.90;56.27;100101.87;1715396;81;21304;-79
2021/08/17 07:30:22;;;;;;;33.20;16.82;;;;;;;28.96;56.12;100102.09;1724099;81;21311;-80
2021/08/17 07:33:30;;;;;;;34.40;18.00;;;;;;;28.98;55.87;100102.60;1722199;80;21272;-80
2021/08/17 07:36:36;;;;;;;30.57;15.23;;;;;;;29.08;55.83;100107.25;1710004;81;21531;-80
2021/08/17 07:39:41;;;;;;;33.45;14.10;;;;;;;29.19;55.53;100105.97;1710210;82;21291;-79
2021/08/17 07:42:49;;;;;;;27.82;12.50;;;;;;;29.28;54.74;100097.93;1692304;82;21318;-80
2021/08/17 07:45:56;;;;;;;21.35;11.03;;;;;;;29.41;54.12;100097.73;1722633;82;21194;-80
2021/08/17 07:49:04;;;;;;;17.52;10.32;;;;;;;29.51;53.01;100103.20;1676856;83;21300;-80
2021/08/17 07:52:09;;;;;;;19.60;10.10;;;;;;;29.54;51.55;100090.45;1658850;85;21715;-82
2021/08/17 07:55:18;;;;;;;21.27;9.78;;;;;;;29.46;51.34;100094.00;1662161;85;21311;-84
2021/08/17 07:58:23;;;;;;;18.00;10.40;;;;;;;29.42;52.05;100091.52;1691366;82;21316;-80
2021/08/17 08:01:32;;;;;;;23.47;11.68;;;;;;;29.54;52.54;100086.23;1729410;80;57852;-77
2021/08/17 08:04:38;;;;;;;21.70;10.58;;;;;;;29.59;51.23;100087.58;1740214;81;21198;-83
2021/08/17 08:07:44;;;;;;;16.77;8.75;;;;;;;29.61;50.77;100092.92;1746439;80;21323;-84
2021/08/17 08:10:49;;;;;;;24.43;12.45;;;;;;;29.62;50.43;100081.34;1724021;81;21292;-77
2021/08/17 08:13:53;;;;;;;29.12;12.98;;;;;;;29.64;50.15;100085.24;1717022;81;21940;-77
2021/08/17 08:17:00;;;;;;;26.45;13.05;;;;;;;29.51;49.72;100074.19;1746311;81;21233;-81
2021/08/17 08:20:07;;;;;;;28.32;12.78;;;;;;;29.47;50.63;100067.48;1747162;81;21876;-77
2021/08/17 08:23:12;;;;;;;26.52;13.83;;;;;;;29.56;50.72;100071.31;1737521;81;21271;-81
2021/08/17 08:26:19;;;;;;;23.70;11.85;;;;;;;29.64;50.70;100069.75;1757456;80;21516;-75
2021/08/17 08:29:25;;;;;;;22.00;11.90;;;;;;;29.71;50.56;100071.03;1759293;81;21275;-81
2021/08/17 08:32:30;;;;;;;25.23;13.53;;;;;;;29.78;49.24;100066.38;1742275;81;21727;-81
2021/08/17 08:35:36;;;;;;;27.07;13.78;;;;;;;29.82;49.27;100062.38;1735609;81;21283;-82
2021/08/17 08:38:42;;;;;;;27.37;14.38;;;;;;;29.87;47.41;100061.70;1747131;81;21280;-76
2021/08/17 08:41:48;;;;;;;24.70;12.43;;;;;;;29.91;47.87;100059.11;1724668;82;21205;-82
2021/08/17 08:44:53;;;;;;;27.00;12.98;;;;;;;29.98;47.93;100058.97;1693648;83;21340;-76
2021/08/17 08:47:59;;;;;;;36.05;19.02;;;;;;;30.00;47.03;100060.06;1753926;81;21269;-73
2021/08/17 08:51:04;;;;;;;34.38;17.48;;;;;;;29.96;45.98;100054.78;1757212;80;21311;-80
2021/08/17 08:54:10;;;;;;;49.83;19.27;;;;;;;29.82;46.81;100056.74;1766713;81;21283;-78
2021/08/17 08:57:19;;;;;;;47.30;19.92;;;;;;;29.76;48.69;100055.43;1761288;80;21316;-75
2021/08/17 09:00:25;;;;;;;42.10;20.97;;;;;;;29.84;48.17;100046.02;1755235;81;21877;-74
2021/08/17 09:03:51;;;;;;;48.60;23.02;;;;;;;29.93;48.30;100048.38;1754778;80;21300;-78
2021/08/17 09:07:00;;;;;;;51.45;20.48;;;;;;;30.03;47.95;100044.77;1751897;81;21830;-78
2021/08/17 09:10:18;;;;;;;29.40;15.35;;;;;;;30.20;47.06;100041.34;1754593;80;21439;-74
2021/08/17 09:13:25;;;;;;;30.92;15.68;;;;;;;30.30;46.49;100040.29;1759950;80;21362;-78
2021/08/17 09:16:37;;;;;;;36.30;18.67;;;;;;;30.26;45.50;100040.11;1739960;81;21323;-74
2021/08/17 09:19:50;;;;;;;46.33;21.68;;;;;;;30.11;45.63;100037.55;1756387;81;21259;-74
2021/08/17 09:22:55;;;;;;;;;;;;;;;29.99;47.13;100040.07;1743702;80;21465;-75
2021/08/17 09:26:03;;;;;;;30.92;17.07;;;;;;;30.04;47.83;100028.11;1753291;81;20263;-73
2021/08/17 09:29:10;;;;;;;30.15;15.65;;;;;;;30.09;46.97;100029.16;1748219;81;21751;-75
2021/08/17 09:32:26;;;;;;;27.32;14.65;;;;;;;30.16;46.99;100027.63;1736524;80;21703;-78
2021/08/17 09:35:32;;;;;;;30.68;15.83;;;;;;;30.25;45.98;100026.30;1742534;81;21600;-77
2021/08/17 09:38:40;;;;;;;31.12;15.50;;;;;;;30.33;45.36;100031.79;1746016;80;21335;-75
2021/08/17 09:41:44;;;;;;;22.85;12.90;;;;;;;30.16;44.62;100027.63;1748078;81;21276;-74
2021/08/17 09:44:53;;;;;;;33.30;14.45;;;;;;;29.87;45.12;100026.47;1748595;81;21205;-74
2021/08/17 09:48:04;;;;;;;27.85;13.00;;;;;;;29.87;45.62;100031.27;1750307;81;21122;-73
2021/08/17 09:51:09;;;;;;;30.60;15.83;;;;;;;29.98;45.27;100029.95;1758812;81;21925;-74
2021/08/17 09:54:24;;;;;;;29.07;14.15;;;;;;;30.09;45.30;100019.28;1754141;80;22134;-76
2021/08/17 09:57:29;;;;;;;25.97;13.15;;;;;;;30.24;44.29;100021.81;1753782;81;21751;-73
2021/08/17 10:00:34;;;;;;;23.85;10.72;;;;;;;30.20;44.21;100010.31;1744573;80;21267;-80
2021/08/17 10:03:40;;;;;;;22.35;12.37;;;;;;;30.11;43.18;100015.56;1754493;80;21287;-73
2021/08/17 10:06:45;;;;;;;22.58;11.35;;;;;;;30.09;43.85;100008.00;1749956;81;21315;-73
2021/08/17 10:09:50;;;;;;;18.50;10.98;;;;;;;30.15;43.65;100013.25;1746204;81;21135;-73
2021/08/17 10:12:56;;;;;;;15.38;9.00;;;;;;;30.17;42.44;100006.73;1731427;81;21496;-80
2021/08/17 10:16:01;;;;;;;17.55;9.03;;;;;;;30.12;41.91;100003.16;1719355;83;21201;-72
2021/08/17 10:19:09;;;;;;;15.20;7.72;;;;;;;30.08;42.52;100001.53;1726288;82;21150;-78
2021/08/17 10:22:15;;;;;;;15.30;8.58;;;;;;;30.14;42.21;100012.16;1720579;82;21170;-71
2021/08/17 10:25:22;;;;;;;23.75;9.08;;;;;;;30.14;42.27;100000.30;1744148;81;21269;-71
2021/08/17 10:28:36;;;;;;;20.48;9.63;;;;;;;30.17;42.08;99994.05;1744526;81;21265;-71
2021/08/17 10:31:41;;;;;;;16.95;9.75;;;;;;;30.19;41.71;99996.54;1747616;81;21373;-72
2021/08/17 10:34:46;;;;;;;18.20;9.48;;;;;;;30.26;42.28;99994.98;1748478;81;21166;-81
2021/08/17 10:37:52;;;;;;;17.92;9.83;;;;;;;30.42;42.05;99999.70;1744608;80;21276;-82
2021/08/17 10:41:03;;;;;;;13.18;7.15;;;;;;;30.59;42.48;99989.17;1727359;81;21169;-80
2021/08/17 10:44:15;;;;;;;12.90;6.35;;;;;;;30.78;40.71;99991.28;1745427;80;21857;-80
2021/08/17 10:47:23;;;;;;;12.73;6.00;;;;;;;30.85;40.42;99994.23;1746219;81;21192;-81
2021/08/17 10:50:39;;;;;;;17.50;6.92;;;;;;;30.82;39.58;99992.03;1719302;81;21244;-81
2021/08/17 10:53:46;;;;;;;13.28;7.58;;;;;;;30.75;39.96;99987.67;1744696;80;21566;-72
2021/08/17 10:56:52;;;;;;;15.50;7.42;;;;;;;30.79;40.21;99980.83;1726843;81;21352;-72
2021/08/17 10:59:59;;;;;;;11.10;6.72;;;;;;;30.83;40.61;99984.69;1742957;80;21157;-72
2021/08/17 11:03:05;;;;;;;13.38;6.25;;;;;;;30.85;40.67;99980.95;1718232;82;21907;-72
2021/08/17 11:06:13;;;;;;;11.88;5.62;;;;;;;30.94;40.59;99988.08;1713110;82;22186;-72
2021/08/17 11:09:31;;;;;;;11.30;5.85;;;;;;;31.00;39.26;99983.97;1701983;82;21166;-81
2021/08/17 11:12:47;;;;;;;14.25;5.05;;;;;;;30.95;38.87;99980.69;1714201;82;21265;-81
2021/08/17 11:15:53;;;;;;;14.58;6.97;;;;;;;30.89;39.12;99981.16;1721752;82;21312;-80
2021/08/17 11:19:02;;;;;;;16.20;6.20;;;;;;;30.85;39.51;99985.77;1726349;82;21838;-79
2021/08/17 11:22:14;;;;;;;12.85;6.30;;;;;;;30.73;39.14;99983.52;1675965;84;21233;-87
2021/08/17 11:25:19;;;;;;;9.38;6.25;;;;;;;30.57;39.59;99988.63;1721397;82;21315;-79
2021/08/17 11:28:26;;;;;;;11.40;5.87;;;;;;;30.45;39.82;99985.55;1724155;82;21158;-79
2021/08/17 11:31:31;;;;;;;17.50;7.42;;;;;;;30.39;40.12;99976.91;1711713;82;21779;-79
2021/08/17 11:34:38;;;;;;;14.47;8.03;;;;;;;30.38;40.00;99966.79;1722996;82;21303;-80
2021/08/17 11:37:44;;;;;;;18.95;10.15;;;;;;;30.48;39.90;99970.20;1722370;82;21928;-79
2021/08/17 11:40:49;;;;;;;17.75;9.45;;;;;;;30.62;40.18;99963.70;1724656;82;21291;-79
2021/08/17 11:43:56;;;;;;;17.82;8.95;;;;;;;30.73;39.72;99958.95;1722450;82;21189;-79
2021/08/17 11:47:14;;;;;;;21.62;9.58;;;;;;;30.83;39.51;99957.03;1726491;81;21197;-88
2021/08/17 11:50:21;;;;;;;20.43;9.88;;;;;;;30.89;40.43;99955.74;1725047;82;21272;-80
2021/08/17 11:53:27;;;;;;;27.32;9.48;;;;;;;31.01;40.37;99948.95;1725563;82;21173;-88
2021/08/17 11:56:31;;;;;;;18.73;9.83;;;;;;;31.15;40.15;99943.20;1723548;82;21292;-88
2021/08/17 11:59:50;;;;;;;18.07;10.70;;;;;;;31.28;39.81;99946.56;1725852;82;21873;-87
2021/08/17 12:03:10;;;;;;;24.43;9.80;;;;;;;31.41;39.51;99939.16;1703070;82;21288;-87
2021/08/17 12:06:20;;;;;;;13.72;8.15;;;;;;;31.56;39.46;99935.91;1737458;81;22043;-86
2021/08/17 12:09:27;;;;;;;;;;;;;;;31.58;38.70;99932.19;1742469;81;21198;-87
2021/08/17 12:13:16;;;;;;;19.87;9.25;;;;;;;31.53;38.54;99926.69;1741690;81;20302;-87
2021/08/17 12:16:26;;;;;;;18.57;9.28;;;;;;;31.48;39.33;99923.42;1729031;81;21299;-87
2021/08/17 12:19:32;;;;;;;24.02;11.03;;;;;;;31.51;38.80;99921.92;1745837;81;21177;-88
2021/08/17 12:22:40;;;;;;;25.55;10.78;;;;;;;31.43;38.54;99918.47;1735552;81;21277;-77
2021/08/17 12:25:46;;;;;;;14.33;8.45;;;;;;;31.41;38.83;99917.97;1731004;81;21280;-77
2021/08/17 12:28:53;;;;;;;16.82;9.15;;;;;;;31.43;38.46;99921.30;1727504;81;21299;-77
2021/08/17 12:32:01;;;;;;;21.80;9.20;;;;;;;31.36;38.76;99919.52;1748178;81;21274;-77
2021/08/17 12:35:16;;;;;;;17.42;9.45;;;;;;;31.25;39.24;99923.19;1724514;81;21264;-86
2021/08/17 12:38:24;;;;;;;12.93;7.25;;;;;;;31.16;39.12;99914.66;1738892;81;22175;-87
2021/08/17 12:41:39;;;;;;;17.10;8.75;;;;;;;31.09;39.09;99914.84;1730642;81;21281;-79
2021/08/17 12:44:46;;;;;;;16.73;8.18;;;;;;;30.93;38.94;99915.25;1732740;81;21256;-79
2021/08/17 12:48:10;;;;;;;17.75;8.23;;;;;;;30.76;39.57;99911.70;1746244;81;21336;-87
2021/08/17 12:51:15;;;;;;;18.32;8.33;;;;;;;30.62;40.00;99912.31;1736139;81;21865;-79
2021/08/17 12:54:21;;;;;;;24.20;7.87;;;;;;;30.54;40.78;99906.05;1726383;81;21153;-77
2021/08/17 17:21:51;;;;;;;18.80;10.68;;;;;;;25.45;66.57;99835.89;1701967;84;21339;-79
2021/08/17 17:24:57;;;;;;;25.10;11.95;;;;;;;25.36;67.13;99840.41;1700542;83;21359;-79
2021/08/17 17:28:03;;;;;;;52.62;11.53;;;;;;;25.24;67.58;99843.53;1696219;83;21224;-80
2021/08/17 17:31:08;;;;;;;78.50;32.13;;;;;;;25.16;67.94;99851.11;1734892;82;21310;-80
2021/08/17 17:34:14;;;;;;;22.58;10.88;;;;;;;25.07;67.61;99845.78;1676425;84;21208;-79
2021/08/17 17:37:19;;;;;;;15.58;8.25;;;;;;;25.00;67.26;99848.88;1689333;83;21335;-88
2021/08/17 17:40:24;;;;;;;13.40;7.97;;;;;;;24.99;67.15;99850.02;1682887;84;21289;-88
2021/08/17 17:43:30;;;;;;;14.00;7.80;;;;;;;24.98;67.34;99853.91;1695372;82;21320;-88
2021/08/17 17:46:35;;;;;;;16.67;8.08;;;;;;;24.97;68.06;99855.03;1693119;83;21296;-87
2021/08/17 17:49:41;;;;;;;16.60;9.50;;;;;;;24.95;69.14;99861.48;1677125;84;21916;-88
2021/08/17 17:52:49;;;;;;;26.30;9.38;;;;;;;24.89;70.14;99862.59;1735345;81;21306;-89
2021/08/17 17:55:55;;;;;;;12.85;8.98;;;;;;;24.85;71.37;99868.49;1722335;82;21215;-89
2021/08/17 17:59:02;;;;;;;17.50;9.73;;;;;;;24.81;72.00;99864.58;1719743;81;21168;-87
2021/08/17 18:02:08;;;;;;;22.48;10.10;;;;;;;24.79;72.49;99857.02;1731800;82;21207;-88
2021/08/17 18:05:16;;;;;;;19.37;10.70;;;;;;;24.80;72.63;99857.31;1732120;82;21196;-89
2021/08/17 18:08:22;;;;;;;19.55;10.68;;;;;;;24.81;72.73;99861.22;1678031;83;21948;-79
2021/08/17 18:11:28;;;;;;;24.85;10.10;;;;;;;24.81;72.80;99854.79;1678757;84;21261;-88
2021/08/17 18:14:33;;;;;;;19.20;10.53;;;;;;;24.83;72.81;99858.13;1716398;82;21270;-79
2021/08/17 18:17:39;;;;;;;20.50;11.25;;;;;;;24.81;72.83;99858.98;1682963;84;21246;-80
2021/08/17 18:20:46;;;;;;;18.95;10.08;;;;;;;24.81;72.89;99860.38;1698124;82;21383;-79
2021/08/17 18:23:53;;;;;;;21.50;10.10;;;;;;;24.80;72.88;99856.75;1685538;84;21232;-88
2021/08/17 18:26:58;;;;;;;24.12;11.55;;;;;;;24.79;72.94;99860.64;1702461;82;21301;-89
2021/08/17 18:30:04;;;;;;;24.67;10.15;;;;;;;24.78;73.06;99870.72;1700459;83;21277;-89
2021/08/17 18:33:10;;;;;;;16.30;10.25;;;;;;;24.76;73.15;99865.98;1701316;84;21162;-88
2021/08/17 18:36:16;;;;;;;20.95;10.03;;;;;;;24.73;73.51;99866.80;1705619;82;21331;-89
2021/08/17 18:39:22;;;;;;;18.92;11.40;;;;;;;24.69;73.97;99867.08;1705761;83;21366;-88
2021/08/17 18:42:28;;;;;;;22.73;12.58;;;;;;;24.65;74.30;99868.77;1700556;83;21267;-88